Главная страница
METAR-TAF:

METAR-TAF

Аэропорты :

Тунис, Тунис

Тунис-Карфаген

широта: 36-50N, долгота: 010-14E, высота над уровнем моря: 3 м

Текущие метеонаблюдения

Эта сводка был подготовлена 22 минут назад, в 07:30 UTC
Ветер 7 Узел от южный-юго-западный
Температура 10°C
Влажность 71%
Давление 1024 hPa
Видимость 10 км и более
небольшая облачность на высоте 2600 фута

METAR: DTTA 140730Z 20007KT 9999 FEW026 10/05 Q1024 NOSIG

Время: 08:52 (07:52 UTC)

Прогноз

Эта сводка был подготовлена 2 часа и 52 минут назад, в 05:00 UTC
Прогноз действительный с 14-го 06 UTC до 15-го 06 UTC
Ветер 12 Узел от юго-западный
Видимость 10 км и более
Отдельные облака на высоте 2300 фута

TAF: DTTA 140500Z 1406/1506 22012KT 9999 SCT023

Метеонаблюдения и прогнозы для более 4000 аэропортов (сводки METAR и TAF).

Имеющиеся станции представлены на карте желтыми и красными точками.

Чтобы увидеть название станции, наведите на нее мышь.

Затем щелкните, чтобы увидеть метеонаблюдения и метеопрогнозы.

Управление картой: чтобы увеличить масштаб, щелкните зеленые кнопки с черным крестиком; чтобы уменьшить масштаб, щелкните зеленую кнопку с тире; для просмотра соседних карт щелкайте зеленые стрелки.


METAR-TAF: